Terminal Aerodrome Forecast
Issued by NWS Kansas City/Pleasant Hill, MO

Home | Current Version | Previous Version | Text Only | Print | Product List | Glossary On
Versions: 1 2 3 4 5 6 7 8 9 10 11 12 13 14 15 16 17
000
FTUS43 KEAX 290520
TAFMCI
TAF
KMCI 290520Z 2906/3006 20011KT P6SM SCT150
     FM291400 19012KT P6SM VCTS SCT050CB BKN150
     FM291800 19014G20KT P6SM SCT040 BKN200
     FM300000 18014KT P6SM VCTS BKN040CB=

USA.gov is the U.S. government's official web portal to all federal, state and local government web resources and services.